Time;durP1;ratioP1;P1;durP2;ratioP2;P2;SDS_P1;SDS_P2;PMS_P1;PMS_P2;Temp;Humidity;BMP_temperature;BMP_pressure;BME280_temperature;BME280_humidity;BME280_pressure;Samples;Min_cycle;Max_cycle;Signal;HPM_P1;HPM_P2
2023/09/29 00:00:35;;;;;;;6.95;2.88;;;;;;;;;;4964189;28;20353;-81
2023/09/29 00:03:00;;;;;;;6.55;2.45;;;;;;;;;;4955171;28;20058;-81
2023/09/29 00:05:27;;;;;;;5.85;2.58;;;;;;;;;;4954000;28;20084;-81
2023/09/29 00:07:54;;;;;;;7.38;3.10;;;;;;;;;;4960636;28;20057;-81
2023/09/29 00:10:21;;;;;;;7.13;2.88;;;;;;;;;;4966774;28;20030;-82
2023/09/29 00:12:48;;;;;;;5.93;2.97;;;;;;;;;;4962332;28;20077;-81
2023/09/29 00:15:15;;;;;;;7.18;2.90;;;;;;;;;;4961727;28;20667;-81
2023/09/29 00:17:41;;;;;;;7.85;2.70;;;;;;;;;;4970928;28;20056;-81
2023/09/29 00:20:12;;;;;;;5.70;2.65;;;;;;;;;;4961929;28;20109;-81
2023/09/29 00:22:38;;;;;;;5.90;2.92;;;;;;;;;;4966326;28;20034;-81
2023/09/29 00:25:05;;;;;;;8.00;2.85;;;;;;;;;;4962698;28;20019;-84
2023/09/29 00:27:32;;;;;;;5.75;2.75;;;;;;;;;;4966940;28;20023;-81
2023/09/29 00:29:57;;;;;;;6.05;2.85;;;;;;;;;;4962718;28;20341;-80
2023/09/29 00:32:22;;;;;;;7.95;2.88;;;;;;;;;;4953046;28;20054;-82
2023/09/29 00:34:48;;;;;;;6.60;2.60;;;;;;;;;;4955336;28;20026;-79
2023/09/29 00:37:14;;;;;;;6.68;2.75;;;;;;;;;;4958060;28;20023;-80
2023/09/29 00:39:40;;;;;;;9.05;2.60;;;;;;;;;;4962773;28;20046;-80
2023/09/29 00:42:06;;;;;;;6.25;2.75;;;;;;;;;;4961742;28;20165;-81
2023/09/29 00:44:33;;;;;;;4.85;2.47;;;;;;;;;;4968653;28;20038;-82
2023/09/29 00:46:59;;;;;;;5.38;2.65;;;;;;;;;;4961764;28;20109;-80
2023/09/29 00:49:26;;;;;;;6.13;2.63;;;;;;;;;;4972285;28;20026;-81
2023/09/29 00:51:53;;;;;;;5.57;2.75;;;;;;;;;;4964107;28;20341;-80
2023/09/29 00:54:19;;;;;;;5.47;2.70;;;;;;;;;;4963261;28;20046;-82
2023/09/29 00:56:44;;;;;;;8.02;2.58;;;;;;;;;;4964085;28;20105;-81
2023/09/29 00:59:10;;;;;;;3.50;2.40;;;;;;;;;;4961089;28;20086;-81
2023/09/29 01:01:36;;;;;;;7.38;2.60;;;;;;;;;;4955745;28;20549;-82
2023/09/29 01:04:02;;;;;;;7.00;2.40;;;;;;;;;;4963347;28;20045;-82
2023/09/29 01:06:29;;;;;;;4.35;2.63;;;;;;;;;;4966510;28;20056;-81
2023/09/29 01:08:57;;;;;;;6.88;2.60;;;;;;;;;;4966861;28;20024;-81
2023/09/29 01:11:22;;;;;;;5.00;2.50;;;;;;;;;;4961581;28;20038;-84
2023/09/29 01:13:48;;;;;;;5.95;2.40;;;;;;;;;;4965065;28;20228;-79
2023/09/29 01:16:13;;;;;;;5.38;2.63;;;;;;;;;;4961205;28;20035;-80
2023/09/29 01:18:39;;;;;;;6.25;2.58;;;;;;;;;;4963514;28;20101;-81
2023/09/29 01:21:06;;;;;;;4.68;2.70;;;;;;;;;;4955397;28;20031;-85
2023/09/29 01:23:33;;;;;;;6.15;2.53;;;;;;;;;;4971448;28;20027;-90
2023/09/29 01:25:59;;;;;;;4.95;2.35;;;;;;;;;;4959824;28;20023;-81
2023/09/29 01:28:25;;;;;;;4.97;2.42;;;;;;;;;;4964512;28;20027;-80
2023/09/29 01:30:53;;;;;;;4.95;2.70;;;;;;;;;;4960938;28;20075;-80
2023/09/29 01:33:21;;;;;;;6.78;2.42;;;;;;;;;;4967104;28;20177;-91
2023/09/29 01:35:48;;;;;;;6.28;2.60;;;;;;;;;;4951493;28;20089;-80
2023/09/29 01:38:14;;;;;;;5.57;2.53;;;;;;;;;;4964953;28;20034;-92
2023/09/29 01:40:40;;;;;;;6.95;2.58;;;;;;;;;;4968620;28;20334;-83
2023/09/29 01:43:06;;;;;;;6.30;2.70;;;;;;;;;;4963492;28;20468;-95
2023/09/29 01:45:32;;;;;;;5.35;2.70;;;;;;;;;;4965386;28;20463;-79
2023/09/29 01:47:58;;;;;;;7.60;2.85;;;;;;;;;;4965787;28;20043;-80
2023/09/29 01:50:24;;;;;;;5.55;2.30;;;;;;;;;;4975789;28;20050;-80
2023/09/29 01:52:50;;;;;;;6.47;2.60;;;;;;;;;;4965743;28;20447;-79
2023/09/29 01:55:19;;;;;;;7.25;2.67;;;;;;;;;;4971606;28;20019;-94
2023/09/29 01:57:49;;;;;;;6.35;2.60;;;;;;;;;;4968841;28;20018;-80
2023/09/29 02:00:19;;;;;;;6.20;2.55;;;;;;;;;;4963779;28;20440;-80
2023/09/29 02:02:46;;;;;;;6.07;2.40;;;;;;;;;;4973718;28;20057;-79
2023/09/29 02:05:12;;;;;;;6.18;2.55;;;;;;;;;;4964866;28;20042;-79
2023/09/29 02:07:38;;;;;;;4.95;2.58;;;;;;;;;;4979689;28;20015;-79
2023/09/29 02:10:04;;;;;;;6.32;2.47;;;;;;;;;;4958495;28;20042;-79
2023/09/29 02:12:31;;;;;;;7.65;2.70;;;;;;;;;;4964822;28;20022;-86
2023/09/29 02:14:56;;;;;;;4.60;2.60;;;;;;;;;;4959425;28;20068;-80
2023/09/29 02:17:21;;;;;;;5.57;2.53;;;;;;;;;;4968429;28;20054;-82
2023/09/29 02:19:47;;;;;;;5.95;2.45;;;;;;;;;;4964689;28;20047;-81
2023/09/29 02:22:16;;;;;;;4.22;2.42;;;;;;;;;;4957207;28;20026;-81
2023/09/29 02:24:42;;;;;;;7.07;2.55;;;;;;;;;;4961538;28;20033;-80
2023/09/29 02:27:09;;;;;;;5.47;2.40;;;;;;;;;;4956114;28;20035;-81
2023/09/29 02:29:34;;;;;;;7.72;2.53;;;;;;;;;;4964664;28;20030;-81
2023/09/29 02:32:02;;;;;;;4.45;2.10;;;;;;;;;;4954779;28;20185;-81
2023/09/29 02:34:28;;;;;;;5.07;2.80;;;;;;;;;;4962957;28;20023;-81
2023/09/29 02:36:54;;;;;;;7.97;2.38;;;;;;;;;;4958079;28;20107;-80
2023/09/29 02:39:20;;;;;;;4.63;2.20;;;;;;;;;;4957104;28;20104;-82
2023/09/29 02:41:45;;;;;;;4.45;2.30;;;;;;;;;;4957141;28;20273;-81
2023/09/29 02:44:11;;;;;;;5.32;2.20;;;;;;;;;;4954638;28;20500;-81
2023/09/29 02:46:36;;;;;;;4.55;2.20;;;;;;;;;;4953577;28;20234;-81
2023/09/29 02:49:03;;;;;;;5.78;2.38;;;;;;;;;;4958272;28;20038;-82
2023/09/29 02:51:29;;;;;;;3.97;2.20;;;;;;;;;;4966082;28;20242;-82
2023/09/29 02:53:55;;;;;;;5.85;2.10;;;;;;;;;;4960190;28;20358;-79
2023/09/29 02:56:21;;;;;;;5.68;2.20;;;;;;;;;;4957143;28;20322;-79
2023/09/29 02:58:46;;;;;;;4.55;2.38;;;;;;;;;;4964443;28;20214;-80
2023/09/29 03:01:16;;;;;;;4.32;2.00;;;;;;;;;;4959581;28;20030;-81
2023/09/29 03:03:44;;;;;;;5.00;2.00;;;;;;;;;;4970397;28;20026;-81
2023/09/29 03:06:16;;;;;;;5.60;2.30;;;;;;;;;;4963576;28;20081;-80
2023/09/29 03:08:41;;;;;;;5.82;2.47;;;;;;;;;;4965870;28;20046;-81
2023/09/29 03:11:09;;;;;;;4.43;2.17;;;;;;;;;;4955289;28;20034;-80
2023/09/29 03:13:40;;;;;;;5.43;2.05;;;;;;;;;;4983210;28;20026;-81
2023/09/29 03:16:09;;;;;;;8.05;2.42;;;;;;;;;;4983566;28;20039;-83
2023/09/29 03:18:40;;;;;;;6.03;2.03;;;;;;;;;;4966541;28;20023;-83
2023/09/29 03:21:07;;;;;;;5.43;2.10;;;;;;;;;;4961579;28;20035;-82
2023/09/29 03:23:36;;;;;;;4.32;2.15;;;;;;;;;;4961643;28;20037;-81
2023/09/29 03:26:03;;;;;;;5.93;2.10;;;;;;;;;;4959157;28;20037;-81
2023/09/29 03:28:28;;;;;;;4.47;1.85;;;;;;;;;;4966644;28;20035;-82
2023/09/29 03:30:54;;;;;;;4.82;2.00;;;;;;;;;;4958806;28;20447;-81
2023/09/29 03:33:19;;;;;;;5.57;1.92;;;;;;;;;;4962159;28;20030;-83
2023/09/29 03:35:47;;;;;;;5.95;2.40;;;;;;;;;;4958536;28;20057;-82
2023/09/29 03:38:14;;;;;;;8.82;2.63;;;;;;;;;;4962284;28;20018;-82
2023/09/29 03:40:44;;;;;;;5.72;2.00;;;;;;;;;;4955633;28;20030;-80
2023/09/29 03:43:09;;;;;;;7.03;2.67;;;;;;;;;;4953682;28;20035;-82
2023/09/29 03:45:36;;;;;;;5.25;2.25;;;;;;;;;;4966006;28;20121;-81
2023/09/29 03:48:03;;;;;;;6.65;2.22;;;;;;;;;;4962672;28;20097;-81
2023/09/29 03:50:28;;;;;;;9.52;2.50;;;;;;;;;;4965709;28;20047;-82
2023/09/29 03:52:54;;;;;;;7.20;2.70;;;;;;;;;;4961346;28;20026;-80
2023/09/29 03:55:19;;;;;;;6.45;2.10;;;;;;;;;;4961720;28;20057;-81
2023/09/29 03:57:44;;;;;;;7.25;2.55;;;;;;;;;;4959533;28;20019;-78
2023/09/29 04:00:11;;;;;;;6.68;2.33;;;;;;;;;;4950335;28;20101;-81
2023/09/29 04:02:36;;;;;;;4.60;2.28;;;;;;;;;;4954010;28;20027;-80
2023/09/29 04:05:02;;;;;;;7.00;2.20;;;;;;;;;;4952495;28;20035;-81
2023/09/29 04:07:28;;;;;;;7.38;2.38;;;;;;;;;;4955255;28;20027;-80
2023/09/29 04:09:53;;;;;;;4.95;2.30;;;;;;;;;;4962582;28;20034;-81
2023/09/29 04:12:18;;;;;;;6.65;2.50;;;;;;;;;;4960718;28;20467;-81
2023/09/29 04:14:44;;;;;;;6.40;2.25;;;;;;;;;;4959329;28;20046;-80
2023/09/29 04:17:10;;;;;;;6.18;2.35;;;;;;;;;;4956819;28;20034;-82
2023/09/29 04:19:35;;;;;;;7.75;2.22;;;;;;;;;;4964203;28;20038;-81
2023/09/29 04:22:01;;;;;;;6.03;2.42;;;;;;;;;;4960586;28;20041;-82
2023/09/29 04:24:27;;;;;;;6.72;2.20;;;;;;;;;;4958279;28;20031;-81
2023/09/29 04:26:53;;;;;;;7.40;2.30;;;;;;;;;;4955704;28;20030;-81
2023/09/29 04:29:18;;;;;;;7.03;2.25;;;;;;;;;;4956019;28;20115;-83
2023/09/29 04:31:43;;;;;;;6.00;2.30;;;;;;;;;;4961222;28;20026;-81
2023/09/29 04:34:09;;;;;;;7.72;2.30;;;;;;;;;;4959962;28;20026;-82
2023/09/29 04:36:34;;;;;;;7.32;2.25;;;;;;;;;;4961570;28;20157;-83
2023/09/29 04:38:59;;;;;;;8.02;2.30;;;;;;;;;;4961560;28;20034;-81
2023/09/29 04:41:25;;;;;;;4.57;2.05;;;;;;;;;;4961117;28;20030;-81
2023/09/29 04:43:50;;;;;;;5.70;2.50;;;;;;;;;;4952380;28;20039;-80
2023/09/29 04:46:16;;;;;;;7.20;2.40;;;;;;;;;;4961372;28;20584;-80
2023/09/29 04:48:42;;;;;;;7.95;2.95;;;;;;;;;;4965233;28;20035;-78
2023/09/29 04:51:07;;;;;;;8.27;2.70;;;;;;;;;;4953286;28;20272;-81
2023/09/29 04:53:32;;;;;;;6.72;2.42;;;;;;;;;;4966330;28;20014;-82
2023/09/29 04:56:00;;;;;;;8.30;2.60;;;;;;;;;;4962383;28;20039;-79
2023/09/29 04:58:26;;;;;;;7.57;2.35;;;;;;;;;;4960637;28;20061;-82
2023/09/29 05:00:52;;;;;;;8.48;2.50;;;;;;;;;;4962761;28;20015;-81
2023/09/29 05:03:18;;;;;;;7.45;2.53;;;;;;;;;;4958208;28;20581;-82
2023/09/29 05:05:45;;;;;;;8.35;2.75;;;;;;;;;;4965483;28;20090;-79
2023/09/29 05:08:11;;;;;;;10.35;2.97;;;;;;;;;;4952592;28;20023;-81
2023/09/29 05:10:36;;;;;;;8.63;2.45;;;;;;;;;;4962742;28;20027;-76
2023/09/29 05:13:02;;;;;;;8.05;2.50;;;;;;;;;;4944836;28;20030;-82
2023/09/29 05:15:28;;;;;;;9.75;2.67;;;;;;;;;;4954770;28;20113;-81
2023/09/29 05:18:24;;;;;;;10.85;3.17;;;;;;;;;;4954105;28;20027;-84
2023/09/29 05:20:52;;;;;;;10.73;2.83;;;;;;;;;;4951654;28;20624;-83
2023/09/29 05:23:17;;;;;;;9.23;3.38;;;;;;;;;;4955493;28;20023;-94
2023/09/29 05:25:52;;;;;;;8.90;2.80;;;;;;;;;;4954917;28;20107;-93
2023/09/29 05:28:18;;;;;;;;;;;;;;;;;;4954778;28;20034;-89
2023/09/29 05:30:53;;;;;;;11.50;2.90;;;;;;;;;;4953765;28;19918;-90
2023/09/29 05:33:19;;;;;;;8.75;2.88;;;;;;;;;;4951349;28;20031;-86
2023/09/29 05:35:46;;;;;;;8.20;2.88;;;;;;;;;;4945565;28;20034;-84
2023/09/29 05:38:11;;;;;;;13.82;2.95;;;;;;;;;;4952481;28;20039;-77
2023/09/29 05:40:38;;;;;;;12.68;3.28;;;;;;;;;;4945330;28;20027;-83
2023/09/29 05:43:04;;;;;;;11.30;3.28;;;;;;;;;;4956310;28;20041;-74
2023/09/29 05:45:29;;;;;;;11.82;3.40;;;;;;;;;;4964773;28;20178;-90
2023/09/29 05:47:56;;;;;;;11.75;3.30;;;;;;;;;;4955825;28;20046;-76
2023/09/29 05:50:21;;;;;;;11.43;3.47;;;;;;;;;;4951096;28;20468;-87
2023/09/29 05:52:48;;;;;;;12.20;3.42;;;;;;;;;;4943408;28;20028;-76
2023/09/29 05:55:13;;;;;;;10.65;3.00;;;;;;;;;;4939661;28;20990;-73
2023/09/29 05:57:39;;;;;;;10.25;2.72;;;;;;;;;;4948588;28;20082;-76
2023/09/29 06:00:06;;;;;;;14.77;3.58;;;;;;;;;;4950956;28;20026;-76
2023/09/29 06:02:31;;;;;;;12.05;3.63;;;;;;;;;;4937277;28;20082;-76
2023/09/29 06:04:56;;;;;;;12.02;3.10;;;;;;;;;;4939466;28;20030;-76
2023/09/29 06:07:23;;;;;;;13.23;3.60;;;;;;;;;;4948667;28;20058;-77
2023/09/29 06:09:48;;;;;;;15.90;4.00;;;;;;;;;;4943072;28;20023;-76
2023/09/29 06:12:13;;;;;;;10.98;3.92;;;;;;;;;;4939427;28;20042;-76
2023/09/29 06:14:39;;;;;;;13.52;3.63;;;;;;;;;;4944518;28;20031;-76
2023/09/29 06:17:04;;;;;;;12.85;3.83;;;;;;;;;;4943899;28;20042;-76
2023/09/29 06:19:30;;;;;;;15.73;3.78;;;;;;;;;;4946627;28;20035;-76
2023/09/29 06:21:55;;;;;;;15.63;3.92;;;;;;;;;;4944076;28;20031;-75
2023/09/29 06:24:21;;;;;;;16.88;4.25;;;;;;;;;;4948480;28;20114;-76
2023/09/29 06:26:46;;;;;;;18.75;4.20;;;;;;;;;;4955265;28;20034;-76
2023/09/29 06:29:12;;;;;;;17.55;3.83;;;;;;;;;;4951690;28;20022;-76
2023/09/29 06:31:38;;;;;;;14.55;3.85;;;;;;;;;;4951643;28;20031;-76
2023/09/29 06:34:04;;;;;;;15.10;3.90;;;;;;;;;;4940602;28;20024;-76
2023/09/29 06:36:29;;;;;;;14.25;3.70;;;;;;;;;;4931026;28;20101;-76
2023/09/29 06:38:56;;;;;;;15.73;4.05;;;;;;;;;;4938398;28;20042;-76
2023/09/29 06:41:21;;;;;;;15.20;4.40;;;;;;;;;;4950670;28;20038;-77
2023/09/29 06:43:47;;;;;;;13.88;3.85;;;;;;;;;;4942271;28;20045;-76
2023/09/29 06:46:12;;;;;;;17.58;4.45;;;;;;;;;;4938181;28;20022;-76
2023/09/29 06:48:38;;;;;;;18.58;4.05;;;;;;;;;;4950660;28;20058;-76
2023/09/29 06:51:03;;;;;;;22.30;4.40;;;;;;;;;;4946052;28;20179;-75
2023/09/29 06:53:31;;;;;;;18.55;4.60;;;;;;;;;;4945010;28;20375;-76
2023/09/29 06:55:57;;;;;;;18.20;4.20;;;;;;;;;;4948836;28;20436;-76
2023/09/29 06:58:23;;;;;;;17.63;4.60;;;;;;;;;;4948871;28;20018;-75
2023/09/29 07:00:51;;;;;;;17.67;4.60;;;;;;;;;;4948245;28;20030;-75
2023/09/29 07:03:17;;;;;;;16.75;4.50;;;;;;;;;;4945000;28;20023;-76
2023/09/29 07:05:42;;;;;;;16.13;4.00;;;;;;;;;;4945145;28;20122;-76
2023/09/29 07:08:07;;;;;;;24.08;4.53;;;;;;;;;;4944440;28;20763;-76
2023/09/29 07:10:33;;;;;;;19.75;4.35;;;;;;;;;;4950301;28;20035;-76
2023/09/29 07:12:58;;;;;;;20.60;5.00;;;;;;;;;;4945320;28;20023;-76
2023/09/29 07:15:24;;;;;;;22.20;4.70;;;;;;;;;;4955110;28;20027;-77
2023/09/29 07:17:49;;;;;;;16.83;4.18;;;;;;;;;;4949803;28;20038;-76
2023/09/29 07:20:15;;;;;;;18.63;4.10;;;;;;;;;;4946934;28;20509;-77
2023/09/29 07:22:40;;;;;;;13.90;3.90;;;;;;;;;;4948956;28;20034;-76
2023/09/29 07:25:06;;;;;;;14.38;4.13;;;;;;;;;;4943567;28;20204;-76
2023/09/29 07:27:32;;;;;;;20.35;4.47;;;;;;;;;;4942608;28;20527;-77
2023/09/29 07:29:58;;;;;;;16.27;4.10;;;;;;;;;;4949022;28;20030;-76
2023/09/29 07:32:25;;;;;;;16.83;3.97;;;;;;;;;;4950991;28;20031;-75
2023/09/29 07:34:51;;;;;;;16.83;3.80;;;;;;;;;;4943047;28;20097;-75
2023/09/29 07:37:16;;;;;;;15.70;3.60;;;;;;;;;;4955048;28;20092;-75
2023/09/29 07:39:42;;;;;;;16.55;3.30;;;;;;;;;;4956444;28;20038;-75
2023/09/29 07:42:09;;;;;;;15.40;3.90;;;;;;;;;;4948139;28;20023;-76
2023/09/29 07:44:34;;;;;;;14.52;2.90;;;;;;;;;;4937931;28;20050;-75
2023/09/29 07:47:00;;;;;;;11.60;3.22;;;;;;;;;;4949164;28;20023;-75
2023/09/29 07:49:25;;;;;;;11.45;2.55;;;;;;;;;;4951714;28;20025;-76
2023/09/29 07:51:51;;;;;;;10.65;2.50;;;;;;;;;;4935613;28;20022;-74
2023/09/29 07:54:17;;;;;;;8.85;1.98;;;;;;;;;;4946084;28;20015;-75
2023/09/29 07:56:47;;;;;;;7.28;2.00;;;;;;;;;;4951987;28;20387;-75
2023/09/29 07:59:13;;;;;;;7.13;2.00;;;;;;;;;;4949152;28;20023;-75
2023/09/29 08:01:39;;;;;;;5.85;1.92;;;;;;;;;;4945230;28;20027;-75
2023/09/29 08:04:04;;;;;;;7.35;1.80;;;;;;;;;;4930605;28;20031;-77
2023/09/29 08:06:30;;;;;;;9.00;1.98;;;;;;;;;;4944831;28;20765;-75
2023/09/29 08:08:55;;;;;;;6.78;2.00;;;;;;;;;;4949007;28;20031;-76
2023/09/29 08:11:20;;;;;;;9.55;1.92;;;;;;;;;;4938872;28;20472;-75
2023/09/29 08:13:49;;;;;;;8.80;2.10;;;;;;;;;;4955337;28;20022;-75
2023/09/29 08:16:15;;;;;;;9.30;2.10;;;;;;;;;;4961172;28;20015;-76
2023/09/29 08:18:40;;;;;;;10.20;2.30;;;;;;;;;;4950907;28;20038;-77
2023/09/29 08:21:05;;;;;;;5.78;1.77;;;;;;;;;;4952157;28;20019;-75
2023/09/29 08:23:31;;;;;;;6.00;1.70;;;;;;;;;;4952909;28;20523;-78
2023/09/29 08:25:56;;;;;;;14.13;1.73;;;;;;;;;;4954121;28;20026;-75
2023/09/29 08:28:22;;;;;;;8.57;1.80;;;;;;;;;;4956248;28;20034;-75
2023/09/29 08:30:48;;;;;;;8.32;1.98;;;;;;;;;;4955296;28;20038;-74
2023/09/29 08:33:14;;;;;;;5.78;1.70;;;;;;;;;;4940913;28;20029;-76
2023/09/29 08:35:39;;;;;;;8.70;1.35;;;;;;;;;;4941797;28;20110;-75
2023/09/29 08:38:05;;;;;;;6.35;1.45;;;;;;;;;;4948282;28;20106;-75
2023/09/29 08:40:36;;;;;;;4.15;1.30;;;;;;;;;;4949568;28;20026;-74
2023/09/29 08:43:06;;;;;;;4.07;1.27;;;;;;;;;;4948669;28;20023;-75
2023/09/29 08:45:32;;;;;;;5.78;1.42;;;;;;;;;;4953012;28;20059;-75
2023/09/29 08:47:59;;;;;;;6.60;1.52;;;;;;;;;;4948556;28;20031;-75
2023/09/29 08:50:25;;;;;;;7.38;1.42;;;;;;;;;;4955960;28;20151;-75
2023/09/29 08:52:53;;;;;;;4.07;1.10;;;;;;;;;;4955664;28;20031;-75
2023/09/29 08:55:19;;;;;;;3.50;1.10;;;;;;;;;;4956517;28;20158;-76
2023/09/29 08:57:45;;;;;;;3.78;1.20;;;;;;;;;;4948669;28;20031;-74
2023/09/29 09:00:15;;;;;;;4.15;1.20;;;;;;;;;;4952681;28;20026;-75
2023/09/29 09:02:44;;;;;;;2.70;1.00;;;;;;;;;;4942634;28;20101;-75
2023/09/29 09:05:11;;;;;;;3.92;1.20;;;;;;;;;;4950700;28;20073;-75
2023/09/29 09:07:38;;;;;;;3.05;1.10;;;;;;;;;;4953189;28;20062;-74
2023/09/29 09:10:04;;;;;;;2.53;0.90;;;;;;;;;;4948696;28;20027;-76
2023/09/29 09:12:37;;;;;;;4.35;1.00;;;;;;;;;;4955629;28;20345;-76
2023/09/29 09:15:03;;;;;;;2.42;0.88;;;;;;;;;;4949684;28;20038;-74
2023/09/29 09:17:30;;;;;;;3.25;0.88;;;;;;;;;;4955720;28;20077;-74
2023/09/29 09:19:55;;;;;;;2.00;0.90;;;;;;;;;;4935637;28;20038;-73
2023/09/29 09:22:24;;;;;;;2.88;1.10;;;;;;;;;;4939395;28;20034;-73
2023/09/29 09:24:51;;;;;;;4.25;1.10;;;;;;;;;;4951300;28;20030;-74
2023/09/29 09:27:17;;;;;;;2.47;1.02;;;;;;;;;;4956458;28;20018;-74
2023/09/29 09:29:44;;;;;;;2.28;0.90;;;;;;;;;;4955401;28;20105;-75
2023/09/29 09:32:10;;;;;;;2.33;0.98;;;;;;;;;;4950894;28;20099;-74
2023/09/29 09:34:37;;;;;;;2.78;1.20;;;;;;;;;;4947750;28;20503;-75
2023/09/29 09:37:03;;;;;;;2.35;1.00;;;;;;;;;;4951168;28;20021;-74
2023/09/29 09:39:29;;;;;;;2.25;1.00;;;;;;;;;;4954023;28;20031;-74
2023/09/29 09:41:56;;;;;;;3.60;1.15;;;;;;;;;;4948926;28;20395;-74
2023/09/29 09:44:22;;;;;;;2.92;1.20;;;;;;;;;;4948218;28;20038;-74
2023/09/29 09:46:53;;;;;;;3.80;1.30;;;;;;;;;;4952735;28;20073;-74
2023/09/29 09:49:24;;;;;;;3.08;1.20;;;;;;;;;;4956423;28;20717;-75
2023/09/29 09:51:52;;;;;;;3.90;1.60;;;;;;;;;;4941073;28;20030;-75
2023/09/29 09:54:21;;;;;;;5.82;1.50;;;;;;;;;;4949301;28;20097;-74
2023/09/29 09:57:00;;;;;;;4.15;1.40;;;;;;;;;;4949210;28;20046;-73
2023/09/29 09:59:27;;;;;;;5.18;1.55;;;;;;;;;;4955039;28;20034;-74
2023/09/29 10:01:55;;;;;;;5.15;1.40;;;;;;;;;;4946390;28;20090;-74
2023/09/29 10:04:24;;;;;;;5.30;1.45;;;;;;;;;;4943817;28;20492;-74
2023/09/29 10:06:50;;;;;;;5.13;1.50;;;;;;;;;;4950897;28;20666;-74
2023/09/29 10:09:15;;;;;;;6.15;1.40;;;;;;;;;;4952289;28;20031;-74
2023/09/29 10:11:43;;;;;;;5.35;1.70;;;;;;;;;;4952821;28;20069;-75
2023/09/29 10:14:09;;;;;;;5.97;1.67;;;;;;;;;;4944796;28;20081;-74
2023/09/29 10:16:35;;;;;;;4.05;1.48;;;;;;;;;;4945155;28;20066;-74
2023/09/29 10:19:05;;;;;;;6.35;1.77;;;;;;;;;;4945111;28;20122;-74
2023/09/29 10:21:49;;;;;;;5.53;2.00;;;;;;;;;;4941937;28;20565;-75
2023/09/29 10:24:27;;;;;;;5.85;1.90;;;;;;;;;;4938932;28;20030;-74
2023/09/29 10:26:52;;;;;;;5.13;1.60;;;;;;;;;;4950161;28;20054;-74
2023/09/29 10:29:25;;;;;;;5.05;1.95;;;;;;;;;;4949384;28;20207;-74
2023/09/29 10:31:52;;;;;;;7.63;2.38;;;;;;;;;;4946650;28;20719;-74
2023/09/29 10:34:21;;;;;;;6.85;1.92;;;;;;;;;;4942065;28;20065;-73
2023/09/29 10:36:55;;;;;;;5.43;1.88;;;;;;;;;;4943250;28;20422;-75
2023/09/29 10:39:26;;;;;;;5.53;1.70;;;;;;;;;;4940703;28;20038;-74
2023/09/29 10:41:58;;;;;;;6.80;2.15;;;;;;;;;;4952360;28;20667;-74
2023/09/29 10:44:27;;;;;;;7.68;2.20;;;;;;;;;;4949760;28;20582;-75
2023/09/29 10:46:52;;;;;;;7.78;1.80;;;;;;;;;;4940454;28;20034;-75
2023/09/29 10:49:18;;;;;;;6.78;2.13;;;;;;;;;;4952664;28;20023;-75
2023/09/29 10:51:43;;;;;;;9.50;1.85;;;;;;;;;;4954444;28;20027;-75
2023/09/29 10:54:08;;;;;;;7.00;1.90;;;;;;;;;;4947885;28;20652;-74
2023/09/29 10:56:36;;;;;;;6.95;1.95;;;;;;;;;;4955351;28;20034;-74
2023/09/29 10:59:06;;;;;;;6.63;2.03;;;;;;;;;;4934746;28;20411;-74
2023/09/29 11:01:33;;;;;;;6.35;1.90;;;;;;;;;;4936421;28;20019;-75
2023/09/29 11:04:00;;;;;;;5.78;1.67;;;;;;;;;;4930295;28;20058;-74
2023/09/29 11:06:26;;;;;;;5.47;1.70;;;;;;;;;;4945264;28;20027;-74
2023/09/29 11:08:59;;;;;;;5.70;1.80;;;;;;;;;;4946239;28;20038;-75
2023/09/29 11:11:26;;;;;;;5.60;1.70;;;;;;;;;;4960376;28;20030;-75
2023/09/29 11:13:55;;;;;;;5.32;1.83;;;;;;;;;;4951432;28;20086;-76
2023/09/29 11:16:24;;;;;;;7.00;1.95;;;;;;;;;;4950873;28;20684;-74
2023/09/29 11:18:50;;;;;;;5.40;1.95;;;;;;;;;;4951026;28;20031;-76
2023/09/29 11:21:19;;;;;;;5.97;1.67;;;;;;;;;;4949611;28;20323;-75
2023/09/29 11:23:48;;;;;;;5.03;1.67;;;;;;;;;;4949319;28;20034;-76
2023/09/29 11:26:15;;;;;;;6.40;1.80;;;;;;;;;;4938987;28;20158;-75
2023/09/29 11:28:47;;;;;;;4.30;1.58;;;;;;;;;;4947243;28;20747;-75
2023/09/29 11:31:14;;;;;;;5.13;1.55;;;;;;;;;;4940169;28;20094;-75
2023/09/29 11:33:39;;;;;;;6.63;1.80;;;;;;;;;;4952100;28;20030;-75
2023/09/29 11:36:15;;;;;;;6.85;2.13;;;;;;;;;;4952472;28;20098;-75
2023/09/29 11:38:41;;;;;;;5.47;1.77;;;;;;;;;;4955401;28;20022;-74
2023/09/29 11:41:06;;;;;;;5.38;1.63;;;;;;;;;;4954382;28;20042;-75
2023/09/29 11:43:35;;;;;;;10.13;1.95;;;;;;;;;;4960454;28;20346;-73
2023/09/29 11:46:01;;;;;;;7.82;2.00;;;;;;;;;;4957301;28;20331;-75
2023/09/29 11:48:27;;;;;;;4.47;1.75;;;;;;;;;;4971246;28;20037;-75
2023/09/29 11:50:53;;;;;;;6.78;1.73;;;;;;;;;;4957582;28;20027;-74
2023/09/29 11:53:19;;;;;;;6.10;1.80;;;;;;;;;;4962328;28;20343;-75
2023/09/29 11:55:44;;;;;;;5.55;1.83;;;;;;;;;;4964616;28;20030;-75
2023/09/29 11:58:10;;;;;;;6.07;2.00;;;;;;;;;;4954940;28;20026;-75
2023/09/29 12:00:36;;;;;;;7.63;2.00;;;;;;;;;;4964454;28;20036;-76
2023/09/29 12:03:05;;;;;;;8.38;2.05;;;;;;;;;;4948769;28;20054;-76
2023/09/29 12:05:32;;;;;;;6.22;1.90;;;;;;;;;;4953742;28;20118;-75
2023/09/29 12:07:57;;;;;;;6.68;2.13;;;;;;;;;;4950925;28;20081;-75
2023/09/29 12:10:22;;;;;;;4.55;1.77;;;;;;;;;;4955715;28;20022;-75
2023/09/29 12:12:48;;;;;;;6.75;2.05;;;;;;;;;;4949348;28;20542;-75
2023/09/29 12:15:15;;;;;;;6.15;2.17;;;;;;;;;;4956208;28;20023;-76
2023/09/29 12:17:40;;;;;;;6.22;1.80;;;;;;;;;;4956095;28;20046;-76
2023/09/29 12:20:09;;;;;;;6.47;2.30;;;;;;;;;;4956101;28;20034;-75
2023/09/29 12:22:35;;;;;;;6.35;2.17;;;;;;;;;;4964938;28;20085;-76
2023/09/29 12:25:00;;;;;;;5.47;1.92;;;;;;;;;;4957240;28;20104;-76
2023/09/29 12:27:26;;;;;;;5.47;2.10;;;;;;;;;;4956249;28;20023;-77
2023/09/29 12:29:51;;;;;;;4.72;1.85;;;;;;;;;;4966923;28;20280;-75
2023/09/29 12:32:16;;;;;;;7.03;2.30;;;;;;;;;;4954863;28;20288;-75
2023/09/29 12:34:43;;;;;;;5.40;2.03;;;;;;;;;;4956352;28;20031;-75
2023/09/29 12:37:08;;;;;;;7.55;2.35;;;;;;;;;;4961955;28;20101;-75
2023/09/29 12:39:34;;;;;;;13.05;2.50;;;;;;;;;;4959506;28;20242;-76
2023/09/29 12:41:59;;;;;;;7.80;2.25;;;;;;;;;;4956079;28;20505;-79
2023/09/29 12:44:25;;;;;;;5.68;2.08;;;;;;;;;;4964723;28;20113;-76
2023/09/29 12:46:50;;;;;;;5.53;2.00;;;;;;;;;;4954062;28;20027;-75
2023/09/29 12:49:16;;;;;;;6.13;1.90;;;;;;;;;;4957100;28;20460;-75
2023/09/29 12:51:41;;;;;;;7.55;2.10;;;;;;;;;;4942240;28;20027;-77
2023/09/29 12:54:07;;;;;;;5.85;2.00;;;;;;;;;;4945152;28;20036;-76
2023/09/29 12:56:32;;;;;;;6.32;2.10;;;;;;;;;;4945333;28;20034;-77
2023/09/29 12:58:58;;;;;;;8.13;2.20;;;;;;;;;;4954827;28;20414;-76
2023/09/29 13:01:25;;;;;;;8.35;2.08;;;;;;;;;;4954109;28;20035;-76
2023/09/29 13:03:51;;;;;;;7.32;2.20;;;;;;;;;;4956084;28;20033;-76
2023/09/29 13:06:17;;;;;;;6.22;2.13;;;;;;;;;;4950751;28;20086;-75
2023/09/29 13:08:42;;;;;;;6.03;1.70;;;;;;;;;;4949899;28;20038;-76
2023/09/29 13:11:15;;;;;;;8.10;2.10;;;;;;;;;;4949935;28;20525;-76
2023/09/29 13:13:40;;;;;;;5.68;2.03;;;;;;;;;;4955361;28;20627;-76
2023/09/29 13:16:06;;;;;;;5.75;1.90;;;;;;;;;;4949794;28;20326;-76
2023/09/29 13:18:32;;;;;;;4.22;2.13;;;;;;;;;;4950068;28;20031;-76
2023/09/29 13:20:58;;;;;;;7.05;2.00;;;;;;;;;;4940874;28;20062;-76
2023/09/29 13:23:24;;;;;;;5.00;1.92;;;;;;;;;;4953657;28;20023;-75
2023/09/29 13:25:51;;;;;;;8.25;2.05;;;;;;;;;;4954933;28;20513;-76
2023/09/29 13:28:17;;;;;;;6.07;2.35;;;;;;;;;;4946163;28;20029;-76
2023/09/29 13:30:42;;;;;;;6.32;2.40;;;;;;;;;;4945469;28;20159;-76
2023/09/29 13:33:07;;;;;;;6.82;2.50;;;;;;;;;;4939751;28;20229;-77
2023/09/29 13:35:33;;;;;;;6.80;2.63;;;;;;;;;;4950789;28;20030;-75
2023/09/29 13:37:58;;;;;;;6.75;2.35;;;;;;;;;;4965824;28;20037;-76
2023/09/29 13:40:24;;;;;;;7.45;2.53;;;;;;;;;;4949945;28;20075;-75
2023/09/29 13:42:50;;;;;;;6.25;2.70;;;;;;;;;;4953326;28;20754;-74
2023/09/29 13:45:17;;;;;;;8.20;2.70;;;;;;;;;;4951798;28;20043;-76
2023/09/29 13:47:43;;;;;;;6.10;2.60;;;;;;;;;;4954542;28;20061;-76
2023/09/29 13:50:11;;;;;;;7.28;2.40;;;;;;;;;;4942788;28;20035;-75
2023/09/29 13:52:37;;;;;;;6.78;2.55;;;;;;;;;;4947089;28;20038;-75
2023/09/29 13:55:04;;;;;;;6.65;2.33;;;;;;;;;;4950398;28;20030;-77
2023/09/29 13:57:30;;;;;;;5.63;2.30;;;;;;;;;;4945220;28;20031;-75
2023/09/29 13:59:56;;;;;;;7.25;2.47;;;;;;;;;;4946511;28;20093;-76
2023/09/29 14:02:22;;;;;;;5.95;2.40;;;;;;;;;;4940682;28;20215;-76
2023/09/29 14:04:48;;;;;;;6.72;2.53;;;;;;;;;;4939733;28;20339;-76
2023/09/29 14:07:13;;;;;;;6.97;2.45;;;;;;;;;;4943491;28;20563;-77
2023/09/29 14:09:40;;;;;;;7.10;2.53;;;;;;;;;;4944858;28;20037;-76
2023/09/29 14:12:07;;;;;;;6.13;2.42;;;;;;;;;;4938808;28;20549;-76
2023/09/29 14:14:34;;;;;;;7.25;2.35;;;;;;;;;;4945329;28;20105;-75
2023/09/29 14:16:59;;;;;;;5.68;2.30;;;;;;;;;;4943839;28;20968;-76
2023/09/29 14:19:25;;;;;;;5.25;2.47;;;;;;;;;;4944776;28;20409;-76
2023/09/29 14:21:51;;;;;;;6.90;2.38;;;;;;;;;;4951622;28;20224;-76
2023/09/29 14:24:19;;;;;;;6.45;2.50;;;;;;;;;;4956410;28;20334;-77
2023/09/29 14:26:46;;;;;;;5.97;2.25;;;;;;;;;;4957424;28;20030;-77
2023/09/29 14:29:12;;;;;;;6.85;2.28;;;;;;;;;;4957959;28;20092;-78
2023/09/29 14:31:44;;;;;;;5.88;2.25;;;;;;;;;;4966466;28;20034;-78
2023/09/29 14:34:12;;;;;;;6.72;2.40;;;;;;;;;;4958986;28;20318;-77
2023/09/29 14:36:37;;;;;;;6.35;2.30;;;;;;;;;;4960965;28;20039;-78